Time;durP1;ratioP1;P1;durP2;ratioP2;P2;SDS_P1;SDS_P2;PMS_P1;PMS_P2;Temp;Humidity;BMP_temperature;BMP_pressure;BME280_temperature;BME280_humidity;BME280_pressure;Samples;Min_cycle;Max_cycle;Signal;HPM_P1;HPM_P2
2023/06/18 00:02:00;;;;;;;19.25;16.35;;;17.20;99.90;;;;;;5026788;28;20064;-76
2023/06/18 00:04:26;;;;;;;20.95;17.45;;;17.20;99.90;;;;;;5028370;28;20501;-76
2023/06/18 00:06:55;;;;;;;18.40;15.15;;;17.10;99.90;;;;;;5027864;28;20052;-76
2023/06/18 00:09:22;;;;;;;13.68;12.20;;;17.10;99.90;;;;;;5028077;28;20095;-77
2023/06/18 00:11:48;;;;;;;15.68;13.40;;;17.10;99.90;;;;;;5009956;28;21799;-76
2023/06/18 00:14:13;;;;;;;15.13;11.82;;;17.10;99.90;;;;;;5026784;28;20493;-76
2023/06/18 00:16:39;;;;;;;14.98;11.95;;;17.10;99.90;;;;;;5029181;28;20082;-76
2023/06/18 00:19:04;;;;;;;14.30;12.20;;;17.00;99.90;;;;;;5027032;28;20121;-76
2023/06/18 00:21:30;;;;;;;9.00;8.10;;;17.00;99.90;;;;;;5026693;28;20061;-76
2023/06/18 00:23:56;;;;;;;12.35;10.20;;;16.90;99.90;;;;;;5043638;28;20044;-76
2023/06/18 00:26:23;;;;;;;12.05;10.75;;;16.80;99.90;;;;;;5045042;28;20056;-76
2023/06/18 00:28:48;;;;;;;15.27;12.77;;;16.80;99.90;;;;;;5043646;28;20038;-77
2023/06/18 00:31:14;;;;;;;16.48;13.45;;;16.70;99.90;;;;;;5027243;28;20118;-77
2023/06/18 00:33:40;;;;;;;16.85;13.82;;;16.70;99.90;;;;;;5027953;28;20552;-76
2023/06/18 00:36:06;;;;;;;16.90;14.35;;;16.60;99.90;;;;;;5027822;28;20038;-76
2023/06/18 00:38:33;;;;;;;18.35;15.02;;;16.60;99.90;;;;;;5010896;28;20069;-76
2023/06/18 00:40:59;;;;;;;18.73;14.80;;;16.60;99.90;;;;;;5048448;28;20046;-76
2023/06/18 00:43:27;;;;;;;19.98;15.38;;;16.60;99.90;;;;;;5031584;28;20484;-76
2023/06/18 00:45:54;;;;;;;18.88;15.07;;;16.70;99.90;;;;;;5028879;28;20052;-77
2023/06/18 00:48:20;;;;;;;17.08;14.55;;;16.60;99.90;;;;;;5031970;28;20137;-77
2023/06/18 00:50:46;;;;;;;19.45;14.63;;;16.60;99.90;;;;;;5014822;28;20508;-76
2023/06/18 00:53:13;;;;;;;23.27;16.83;;;16.70;99.90;;;;;;5022870;28;20042;-76
2023/06/18 00:55:39;;;;;;;20.77;16.63;;;16.60;99.90;;;;;;5031532;28;20037;-76
2023/06/18 00:58:05;;;;;;;22.85;16.48;;;16.70;99.90;;;;;;5030650;28;20037;-77
2023/06/18 01:00:34;;;;;;;22.02;17.38;;;16.70;99.90;;;;;;5011911;28;20034;-76
2023/06/18 01:03:15;;;;;;;21.60;16.88;;;16.70;99.90;;;;;;5029888;28;20067;-76
2023/06/18 01:05:43;;;;;;;19.70;17.15;;;16.70;99.90;;;;;;5012471;28;20489;-76
2023/06/18 01:08:12;;;;;;;23.27;18.35;;;16.70;99.90;;;;;;5029536;28;20505;-77
2023/06/18 01:10:40;;;;;;;21.70;17.60;;;16.70;99.90;;;;;;5030998;28;20029;-76
2023/06/18 01:13:16;;;;;;;21.77;17.10;;;16.60;99.90;;;;;;5047310;28;20512;-76
2023/06/18 01:15:42;;;;;;;21.60;17.42;;;16.60;99.90;;;;;;5031518;28;20562;-77
2023/06/18 01:18:08;;;;;;;18.73;15.40;;;16.60;99.90;;;;;;5028167;28;20484;-76
2023/06/18 01:20:40;;;;;;;20.10;16.02;;;16.50;99.90;;;;;;5031255;28;20033;-76
2023/06/18 01:23:14;;;;;;;17.25;15.15;;;16.50;99.90;;;;;;5029937;28;20533;-76
2023/06/18 01:25:43;;;;;;;15.45;13.50;;;16.50;99.90;;;;;;5027711;28;20069;-76
2023/06/18 01:28:08;;;;;;;14.82;12.60;;;16.40;99.90;;;;;;5025717;28;20068;-76
2023/06/18 01:30:37;;;;;;;15.18;12.50;;;16.40;99.90;;;;;;5024786;28;20041;-77
2023/06/18 01:33:03;;;;;;;13.63;12.23;;;16.30;99.90;;;;;;5021136;28;20053;-78
2023/06/18 01:35:29;;;;;;;14.30;12.10;;;16.20;99.90;;;;;;5023176;28;20045;-76
2023/06/18 01:38:01;;;;;;;12.68;11.35;;;16.10;99.90;;;;;;5018446;28;20038;-77
2023/06/18 01:40:36;;;;;;;14.82;12.05;;;16.10;99.90;;;;;;5038517;28;20065;-77
2023/06/18 01:43:11;;;;;;;16.83;13.85;;;16.10;99.90;;;;;;5018537;28;20042;-76
2023/06/18 01:45:44;;;;;;;16.75;13.75;;;16.10;99.90;;;;;;5038135;28;20030;-77
2023/06/18 01:48:11;;;;;;;20.33;15.70;;;16.00;99.90;;;;;;5029498;28;20477;-76
2023/06/18 01:50:38;;;;;;;16.70;14.50;;;16.00;99.90;;;;;;5029074;28;20067;-77
2023/06/18 01:53:06;;;;;;;14.13;12.48;;;16.00;99.90;;;;;;5030176;28;20544;-77
2023/06/18 01:55:34;;;;;;;12.10;10.85;;;15.90;99.90;;;;;;5028408;28;20034;-76
2023/06/18 01:58:00;;;;;;;13.57;12.10;;;15.90;99.90;;;;;;5027579;28;20501;-76
2023/06/18 02:00:26;;;;;;;14.70;11.77;;;15.80;99.90;;;;;;5028547;28;20034;-76
2023/06/18 02:02:51;;;;;;;17.02;13.88;;;15.80;99.90;;;;;;5018847;28;20095;-75
2023/06/18 02:05:18;;;;;;;14.73;11.85;;;15.80;99.90;;;;;;5027337;28;20097;-77
2023/06/18 02:07:44;;;;;;;15.75;13.00;;;15.70;99.90;;;;;;5023208;28;20116;-76
2023/06/18 02:10:10;;;;;;;15.80;13.68;;;15.60;99.90;;;;;;5029251;28;20120;-78
2023/06/18 02:12:35;;;;;;;18.40;14.65;;;15.60;99.90;;;;;;5018557;28;20037;-76
2023/06/18 02:15:01;;;;;;;20.48;15.55;;;15.60;99.90;;;;;;5011357;28;20045;-77
2023/06/18 02:17:28;;;;;;;15.35;13.20;;;15.60;99.90;;;;;;5030549;28;20037;-76
2023/06/18 02:19:54;;;;;;;16.73;11.95;;;15.60;99.90;;;;;;5029485;28;20091;-77
2023/06/18 02:22:19;;;;;;;15.13;12.00;;;15.50;99.90;;;;;;5028883;28;20068;-77
2023/06/18 02:24:45;;;;;;;14.35;11.57;;;15.50;99.90;;;;;;5028451;28;20041;-76
2023/06/18 02:27:11;;;;;;;11.35;10.15;;;15.40;99.90;;;;;;5023879;28;20076;-76
2023/06/18 02:29:37;;;;;;;35.05;11.30;;;15.30;99.90;;;;;;5017780;28;20045;-76
2023/06/18 02:32:02;;;;;;;59.63;15.20;;;15.30;99.90;;;;;;5026945;28;20068;-75
2023/06/18 02:34:28;;;;;;;13.70;10.75;;;15.20;99.90;;;;;;5028184;28;20045;-76
2023/06/18 02:36:57;;;;;;;11.05;9.13;;;15.10;99.90;;;;;;5029435;28;20041;-76
2023/06/18 02:39:22;;;;;;;11.63;10.15;;;15.10;99.90;;;;;;5030590;28;20037;-75
2023/06/18 02:41:48;;;;;;;10.65;9.30;;;15.20;99.90;;;;;;5030216;28;20176;-76
2023/06/18 02:44:13;;;;;;;10.88;9.13;;;15.20;99.90;;;;;;5032074;28;20421;-75
2023/06/18 02:46:39;;;;;;;13.77;10.50;;;15.10;99.90;;;;;;5044523;28;20049;-77
2023/06/18 02:49:05;;;;;;;14.13;11.77;;;15.10;99.90;;;;;;5030246;28;20048;-76
2023/06/18 02:51:30;;;;;;;8.15;7.28;;;15.00;99.90;;;;;;5030401;28;20060;-76
2023/06/18 02:53:57;;;;;;;7.47;6.78;;;15.00;99.90;;;;;;5046973;28;20046;-77
2023/06/18 02:56:22;;;;;;;10.90;7.60;;;15.00;99.90;;;;;;5027560;28;20124;-76
2023/06/18 02:58:55;;;;;;;10.07;9.07;;;14.90;99.90;;;;;;5030178;28;20079;-77
2023/06/18 03:01:24;;;;;;;16.98;9.85;;;14.80;99.90;;;;;;5029801;28;20052;-76
2023/06/18 03:03:50;;;;;;;16.10;9.23;;;14.80;99.90;;;;;;5028580;28;20041;-76
2023/06/18 03:06:16;;;;;;;12.50;9.25;;;14.80;99.90;;;;;;5028562;28;20073;-76
2023/06/18 03:08:42;;;;;;;11.07;9.98;;;14.70;99.90;;;;;;5029960;28;20115;-76
2023/06/18 03:11:07;;;;;;;10.32;9.20;;;14.70;99.90;;;;;;5030062;28;20095;-76
2023/06/18 03:13:33;;;;;;;11.13;9.93;;;14.70;99.90;;;;;;5029684;28;20041;-76
2023/06/18 03:15:59;;;;;;;10.98;9.35;;;14.70;99.90;;;;;;5044838;28;20523;-76
2023/06/18 03:18:25;;;;;;;10.25;9.13;;;14.70;99.90;;;;;;5029801;28;20044;-77
2023/06/18 03:20:50;;;;;;;11.73;9.43;;;14.70;99.90;;;;;;5030112;28;20416;-76
2023/06/18 03:23:16;;;;;;;13.70;10.32;;;14.70;99.90;;;;;;5028201;28;20127;-76
2023/06/18 03:25:42;;;;;;;10.82;8.40;;;14.60;99.90;;;;;;5028184;28;20052;-76
2023/06/18 03:28:07;;;;;;;12.88;10.52;;;14.50;99.90;;;;;;5046224;28;20041;-76
2023/06/18 03:30:33;;;;;;;14.20;12.02;;;14.50;99.90;;;;;;5029690;28;20042;-76
2023/06/18 03:33:02;;;;;;;16.27;11.77;;;14.50;99.90;;;;;;5044187;28;20049;-76
2023/06/18 03:35:28;;;;;;;19.13;11.30;;;14.60;99.90;;;;;;5044923;28;20397;-76
2023/06/18 03:37:54;;;;;;;22.30;12.15;;;14.60;99.90;;;;;;5026372;28;20041;-75
2023/06/18 03:40:21;;;;;;;20.30;13.88;;;14.70;99.90;;;;;;5025645;28;20617;-76
2023/06/18 03:42:46;;;;;;;41.28;15.60;;;14.70;99.90;;;;;;5027791;28;20037;-75
2023/06/18 03:45:12;;;;;;;26.52;15.63;;;14.80;99.90;;;;;;5025941;28;20068;-76
2023/06/18 03:47:38;;;;;;;30.17;17.35;;;14.90;99.90;;;;;;5028855;28;20037;-76
2023/06/18 03:50:04;;;;;;;27.80;17.23;;;15.00;99.90;;;;;;5028120;28;20041;-76
2023/06/18 03:52:30;;;;;;;27.13;16.98;;;15.10;99.90;;;;;;5025441;28;20568;-75
2023/06/18 03:54:56;;;;;;;25.75;17.42;;;15.10;99.90;;;;;;5023393;28;20037;-75
2023/06/18 03:57:23;;;;;;;24.38;17.25;;;15.20;99.90;;;;;;5046081;28;20044;-76
2023/06/18 03:59:51;;;;;;;25.48;17.85;;;15.30;99.90;;;;;;5026425;28;20049;-78
2023/06/18 04:02:17;;;;;;;27.83;18.42;;;15.30;99.90;;;;;;5025086;28;20042;-75
2023/06/18 04:04:44;;;;;;;23.60;18.35;;;15.30;99.90;;;;;;5029582;28;20410;-78
2023/06/18 04:07:09;;;;;;;28.55;18.52;;;15.40;99.90;;;;;;5027644;28;20448;-76
2023/06/18 04:09:35;;;;;;;26.75;19.27;;;15.40;99.90;;;;;;5026832;28;20048;-76
2023/06/18 04:12:00;;;;;;;26.70;18.95;;;15.50;99.90;;;;;;5027016;28;20048;-76
2023/06/18 04:14:27;;;;;;;36.20;20.60;;;15.50;99.90;;;;;;5020091;28;20041;-76
2023/06/18 04:16:52;;;;;;;31.40;20.77;;;15.50;99.90;;;;;;5030512;28;20049;-76
2023/06/18 04:19:18;;;;;;;30.15;20.02;;;15.50;99.90;;;;;;5048651;28;20385;-76
2023/06/18 04:21:43;;;;;;;28.15;19.33;;;15.50;99.90;;;;;;5049180;28;20482;-78
2023/06/18 04:24:09;;;;;;;26.83;19.77;;;15.60;99.90;;;;;;5022012;28;20041;-76
2023/06/18 04:26:34;;;;;;;31.38;19.65;;;15.60;99.90;;;;;;5032471;28;20076;-76
2023/06/18 04:29:00;;;;;;;26.08;19.73;;;15.60;99.90;;;;;;5034346;28;20073;-77
2023/06/18 04:31:25;;;;;;;42.25;21.45;;;15.70;99.90;;;;;;5048997;28;20049;-76
2023/06/18 04:33:51;;;;;;;31.65;19.30;;;15.80;99.90;;;;;;5031306;28;20045;-75
2023/06/18 04:36:16;;;;;;;27.67;18.98;;;15.80;99.90;;;;;;5029072;28;20091;-76
2023/06/18 04:38:42;;;;;;;27.13;19.63;;;15.90;99.90;;;;;;5023294;28;20409;-76
2023/06/18 04:41:07;;;;;;;26.45;18.63;;;15.90;99.90;;;;;;5021186;28;20041;-76
2023/06/18 04:43:33;;;;;;;28.42;18.45;;;16.00;99.90;;;;;;5021509;28;20042;-76
2023/06/18 04:45:59;;;;;;;28.67;18.30;;;16.10;99.90;;;;;;5032867;28;20136;-76
2023/06/18 04:48:25;;;;;;;27.00;18.05;;;16.10;99.90;;;;;;5030581;28;20116;-76
2023/06/18 04:50:51;;;;;;;23.77;18.65;;;16.10;99.90;;;;;;5029617;28;20041;-77
2023/06/18 04:53:16;;;;;;;28.83;18.30;;;16.20;99.90;;;;;;5027820;28;20440;-76
2023/06/18 04:55:43;;;;;;;23.50;17.25;;;16.20;99.90;;;;;;5020894;28;20493;-77
2023/06/18 04:58:10;;;;;;;24.55;17.77;;;16.20;99.90;;;;;;5031815;28;20038;-76
2023/06/18 05:00:35;;;;;;;24.20;17.77;;;16.30;99.90;;;;;;5024950;28;20033;-76
2023/06/18 05:03:01;;;;;;;22.58;17.23;;;16.30;99.90;;;;;;5032354;28;20042;-77
2023/06/18 05:05:27;;;;;;;28.25;17.83;;;16.30;99.90;;;;;;5031982;28;20041;-76
2023/06/18 05:07:53;;;;;;;24.90;17.58;;;16.30;99.90;;;;;;5048777;28;20033;-77
2023/06/18 05:10:19;;;;;;;27.17;16.92;;;16.30;99.90;;;;;;5032026;28;20120;-77
2023/06/18 05:12:45;;;;;;;22.23;17.40;;;16.40;99.90;;;;;;5031936;28;20121;-77
2023/06/18 05:15:10;;;;;;;24.08;17.58;;;16.40;99.90;;;;;;5047395;28;20485;-77
2023/06/18 05:17:36;;;;;;;24.45;17.85;;;16.50;99.90;;;;;;5033367;28;20041;-77
2023/06/18 05:20:04;;;;;;;24.80;18.17;;;16.50;99.90;;;;;;5024080;28;20040;-76
2023/06/18 05:22:30;;;;;;;22.17;17.60;;;16.50;99.90;;;;;;5031630;28;20041;-77
2023/06/18 05:24:55;;;;;;;26.10;18.08;;;16.50;99.90;;;;;;5030544;28;20120;-77
2023/06/18 05:27:21;;;;;;;24.25;17.33;;;16.60;99.90;;;;;;5048311;28;20073;-76
2023/06/18 05:29:46;;;;;;;24.58;18.00;;;16.60;99.90;;;;;;5032932;28;20485;-76
2023/06/18 05:32:12;;;;;;;23.27;17.48;;;16.70;99.90;;;;;;5031375;28;20394;-77
2023/06/18 05:34:37;;;;;;;22.98;17.40;;;16.70;99.90;;;;;;5031616;28;20040;-77
2023/06/18 05:37:03;;;;;;;22.80;17.35;;;16.80;99.90;;;;;;5031979;28;20025;-78
2023/06/18 05:39:28;;;;;;;24.15;18.15;;;16.80;99.90;;;;;;5048071;28;20255;-76
2023/06/18 05:41:54;;;;;;;23.30;18.00;;;16.90;99.90;;;;;;5047990;28;20041;-77
2023/06/18 05:44:20;;;;;;;22.50;16.70;;;16.90;99.90;;;;;;5031536;28;20124;-77
2023/06/18 05:46:45;;;;;;;23.08;16.67;;;17.00;99.90;;;;;;5031482;28;20516;-77
2023/06/18 05:49:11;;;;;;;22.42;17.75;;;17.00;99.90;;;;;;5014918;28;20125;-77
2023/06/18 05:51:36;;;;;;;22.33;17.40;;;17.10;99.90;;;;;;5032363;28;20607;-77
2023/06/18 05:54:02;;;;;;;22.10;17.40;;;17.20;99.90;;;;;;5031427;28;20076;-77
2023/06/18 05:56:27;;;;;;;21.25;17.08;;;17.30;99.90;;;;;;5031468;28;20045;-77
2023/06/18 05:58:53;;;;;;;24.10;17.77;;;17.30;99.90;;;;;;5031340;28;20049;-78
2023/06/18 06:01:19;;;;;;;21.73;17.83;;;17.40;99.90;;;;;;5030677;28;20505;-78
2023/06/18 06:03:45;;;;;;;23.38;18.73;;;17.50;99.90;;;;;;5029428;28;20055;-77
2023/06/18 06:06:10;;;;;;;25.45;18.35;;;17.50;99.90;;;;;;5046461;28;20047;-76
2023/06/18 06:08:36;;;;;;;20.60;16.40;;;17.60;99.90;;;;;;5046388;28;20129;-77
2023/06/18 06:11:02;;;;;;;22.52;17.55;;;17.70;99.90;;;;;;5030687;28;20393;-77
2023/06/18 06:13:27;;;;;;;21.88;17.00;;;17.80;99.90;;;;;;5046415;28;20044;-77
2023/06/18 06:15:53;;;;;;;23.63;17.63;;;17.90;99.90;;;;;;5028318;28;20432;-77
2023/06/18 06:18:19;;;;;;;20.27;16.50;;;18.00;99.90;;;;;;5030700;28;20045;-77
2023/06/18 06:20:44;;;;;;;22.45;17.20;;;18.20;99.90;;;;;;5030884;28;20041;-77
2023/06/18 06:23:10;;;;;;;21.50;17.38;;;18.40;99.90;;;;;;5046962;28;20037;-77
2023/06/18 06:25:35;;;;;;;21.25;16.92;;;18.50;99.90;;;;;;5030675;28;20033;-78
2023/06/18 06:28:02;;;;;;;22.10;17.55;;;18.60;99.90;;;;;;5030740;28;20472;-79
2023/06/18 06:30:27;;;;;;;20.05;16.23;;;18.80;99.90;;;;;;5047242;28;20401;-78
2023/06/18 06:32:52;;;;;;;20.60;16.90;;;18.90;99.90;;;;;;5031496;28;20073;-77
2023/06/18 06:35:18;;;;;;;20.88;16.85;;;19.10;99.90;;;;;;5031306;28;20049;-78
2023/06/18 06:37:44;;;;;;;21.17;15.98;;;19.20;99.90;;;;;;5026788;28;20111;-77
2023/06/18 06:40:10;;;;;;;18.92;15.95;;;19.30;99.90;;;;;;5046687;28;20071;-77
2023/06/18 06:42:35;;;;;;;17.92;15.30;;;19.40;99.90;;;;;;5046811;28;20037;-78
2023/06/18 06:45:02;;;;;;;20.52;15.85;;;19.60;99.90;;;;;;5030115;28;20041;-78
2023/06/18 06:47:28;;;;;;;19.90;15.25;;;19.70;99.90;;;;;;5030183;28;20559;-78
2023/06/18 06:49:53;;;;;;;18.95;15.00;;;19.90;99.90;;;;;;5029778;28;20046;-79
2023/06/18 06:52:19;;;;;;;17.35;14.07;;;20.00;99.90;;;;;;5029289;28;20052;-78
2023/06/18 06:54:44;;;;;;;19.05;15.05;;;20.10;99.90;;;;;;5030715;28;20042;-80
2023/06/18 06:57:10;;;;;;;18.13;15.27;;;20.10;99.90;;;;;;5027998;28;20049;-77
2023/06/18 06:59:36;;;;;;;18.23;14.90;;;20.30;99.90;;;;;;5029050;28;20034;-77
2023/06/18 07:02:02;;;;;;;19.38;15.13;;;20.40;99.90;;;;;;5043075;28;20558;-77
2023/06/18 07:04:27;;;;;;;17.98;14.25;;;20.50;99.90;;;;;;5028330;28;20424;-77
2023/06/18 07:06:53;;;;;;;18.52;14.30;;;20.70;99.90;;;;;;5045319;28;20151;-78
2023/06/18 07:09:18;;;;;;;17.98;14.65;;;20.80;99.90;;;;;;5029317;28;20041;-77
2023/06/18 07:11:44;;;;;;;17.08;13.95;;;21.00;99.90;;;;;;5045791;28;20041;-78
2023/06/18 07:14:10;;;;;;;17.77;14.23;;;21.10;99.90;;;;;;5045980;28;20255;-77
2023/06/18 07:16:35;;;;;;;18.67;14.32;;;21.20;99.90;;;;;;5045169;28;20448;-80
2023/06/18 07:19:03;;;;;;;18.67;13.68;;;21.20;99.90;;;;;;5029658;28;20091;-77
2023/06/18 07:21:29;;;;;;;18.33;13.32;;;21.20;99.90;;;;;;5029179;28;20253;-79
2023/06/18 07:23:55;;;;;;;19.88;13.75;;;21.20;99.90;;;;;;5046315;28;20080;-77
2023/06/18 07:26:21;;;;;;;17.10;12.90;;;21.30;99.90;;;;;;5029581;28;20049;-78
2023/06/18 07:28:46;;;;;;;17.65;12.63;;;21.30;99.90;;;;;;5046273;28;20067;-78
2023/06/18 07:31:12;;;;;;;17.63;12.35;;;21.30;99.90;;;;;;5029420;28;20030;-79
2023/06/18 07:33:37;;;;;;;14.90;12.48;;;21.40;99.90;;;;;;5031025;28;20037;-80
2023/06/18 07:36:03;;;;;;;15.52;12.57;;;21.50;99.90;;;;;;5029664;28;20120;-78
2023/06/18 07:38:29;;;;;;;18.02;13.45;;;21.80;99.90;;;;;;5031094;28;20037;-79
2023/06/18 07:40:54;;;;;;;16.40;12.43;;;21.90;99.90;;;;;;5046085;28;20129;-77
2023/06/18 07:43:20;;;;;;;13.82;11.77;;;22.00;99.90;;;;;;5045852;28;20037;-80
2023/06/18 07:45:46;;;;;;;14.65;11.63;;;22.20;99.90;;;;;;5029419;28;20120;-78
2023/06/18 07:48:11;;;;;;;14.90;12.02;;;22.20;99.90;;;;;;5030853;28;20075;-77
2023/06/18 07:50:37;;;;;;;13.43;10.75;;;22.40;99.90;;;;;;5033462;28;20099;-78
2023/06/18 07:53:03;;;;;;;14.02;10.90;;;22.50;99.90;;;;;;5049932;28;20512;-77
2023/06/18 07:55:28;;;;;;;15.05;11.63;;;22.70;99.90;;;;;;5031903;28;20048;-77
2023/06/18 07:57:54;;;;;;;12.95;11.23;;;22.80;99.90;;;;;;5050079;28;20420;-77
2023/06/18 08:00:20;;;;;;;14.15;11.00;;;23.00;99.90;;;;;;5034354;28;20030;-78
2023/06/18 08:02:46;;;;;;;15.25;11.00;;;23.20;99.90;;;;;;5030774;28;20072;-77
2023/06/18 08:05:12;;;;;;;16.23;11.00;;;23.40;99.90;;;;;;5031537;28;20099;-80
2023/06/18 08:07:38;;;;;;;14.48;9.98;;;23.50;99.90;;;;;;5032376;28;20033;-79
2023/06/18 08:10:05;;;;;;;12.73;11.07;;;23.50;99.90;;;;;;5033567;28;20048;-79
2023/06/18 08:12:31;;;;;;;11.77;9.43;;;23.70;99.90;;;;;;5033050;28;20052;-78
2023/06/18 08:14:56;;;;;;;14.13;9.55;;;23.90;99.90;;;;;;5049279;28;20524;-77
2023/06/18 08:17:22;;;;;;;11.77;10.02;;;23.90;99.90;;;;;;5033122;28;20068;-79
2023/06/18 08:19:48;;;;;;;11.77;8.88;;;24.00;99.90;;;;;;5030266;28;20041;-79
2023/06/18 08:22:15;;;;;;;10.75;9.23;;;24.30;99.90;;;;;;5032683;28;20036;-77
2023/06/18 08:24:41;;;;;;;11.48;9.38;;;24.50;99.90;;;;;;5034191;28;20424;-78
2023/06/18 08:27:07;;;;;;;9.90;8.82;;;24.80;99.90;;;;;;5032819;28;20538;-76
2023/06/18 08:29:32;;;;;;;10.55;9.10;;;25.00;99.90;;;;;;5032923;28;20041;-77
2023/06/18 08:32:04;;;;;;;10.80;8.82;;;25.10;99.90;;;;;;5032224;28;20186;-79
2023/06/18 08:34:42;;;;;;;10.68;8.57;;;25.10;99.90;;;;;;5030867;28;20115;-77
2023/06/18 08:37:08;;;;;;;10.20;9.05;;;25.10;99.90;;;;;;5048989;28;20489;-77
2023/06/18 08:39:33;;;;;;;10.23;8.90;;;25.10;99.90;;;;;;5015461;28;20040;-77
2023/06/18 08:42:00;;;;;;;11.10;8.40;;;25.00;99.90;;;;;;5015501;28;20041;-77
2023/06/18 08:44:26;;;;;;;13.82;9.32;;;24.90;99.90;;;;;;5018702;28;20056;-78
2023/06/18 08:46:57;;;;;;;10.20;8.77;;;24.80;99.90;;;;;;5048919;28;20077;-78
2023/06/18 08:49:25;;;;;;;11.52;8.95;;;24.60;99.90;;;;;;5032311;28;20040;-77
2023/06/18 08:51:54;;;;;;;12.60;10.18;;;24.70;99.90;;;;;;5048301;28;20076;-78
2023/06/18 08:54:22;;;;;;;11.45;9.13;;;24.80;99.90;;;;;;5032264;28;20037;-77
2023/06/18 08:56:58;;;;;;;10.85;8.50;;;25.00;99.90;;;;;;5031331;28;20465;-77
2023/06/18 08:59:26;;;;;;;10.15;7.93;;;25.10;99.90;;;;;;5047631;28;20033;-78
2023/06/18 09:01:53;;;;;;;11.05;7.93;;;25.20;99.90;;;;;;5048295;28;20112;-77
2023/06/18 09:04:19;;;;;;;11.63;8.23;;;25.30;99.90;;;;;;5028167;28;20049;-77
2023/06/18 09:06:45;;;;;;;10.38;8.18;;;25.40;99.90;;;;;;5031301;28;20124;-78
2023/06/18 09:09:11;;;;;;;8.48;7.07;;;25.60;99.90;;;;;;5047796;28;20041;-78
2023/06/18 09:11:37;;;;;;;11.77;8.30;;;25.80;99.90;;;;;;5047882;28;20471;-77
2023/06/18 09:14:02;;;;;;;8.50;7.60;;;25.80;99.90;;;;;;5031102;28;20073;-77
2023/06/18 09:16:28;;;;;;;11.18;7.43;;;25.90;99.90;;;;;;5031534;28;20037;-77
2023/06/18 09:18:54;;;;;;;8.65;7.30;;;26.00;99.90;;;;;;5031659;28;20068;-78
2023/06/18 09:21:40;;;;;;;9.10;7.72;;;26.10;99.90;;;;;;5030622;28;20037;-78
2023/06/18 09:24:26;;;;;;;9.18;7.15;;;26.20;99.90;;;;;;5031145;28;20042;-80
2023/06/18 09:27:00;;;;;;;9.65;6.57;;;26.30;99.90;;;;;;5032176;28;20556;-78
2023/06/18 09:29:32;;;;;;;8.90;7.53;;;26.30;99.90;;;;;;5031459;28;20041;-77
2023/06/18 09:32:08;;;;;;;9.95;7.45;;;26.30;99.90;;;;;;5031034;28;20171;-78
2023/06/18 09:34:35;;;;;;;8.27;7.05;;;26.40;99.90;;;;;;5031186;28;20042;-76
2023/06/18 09:37:02;;;;;;;8.50;7.13;;;26.50;99.90;;;;;;5031499;28;20099;-78
2023/06/18 09:39:28;;;;;;;8.50;6.97;;;26.70;99.90;;;;;;5031454;28;20041;-77
2023/06/18 09:41:55;;;;;;;7.95;7.13;;;26.80;99.90;;;;;;5046897;28;20038;-78
2023/06/18 09:44:22;;;;;;;7.20;6.45;;;26.90;99.90;;;;;;5031282;28;20046;-78
2023/06/18 09:46:49;;;;;;;7.95;6.82;;;27.00;99.90;;;;;;5031519;28;20037;-78
2023/06/18 09:49:19;;;;;;;7.72;6.93;;;27.00;99.90;;;;;;5032149;28;20044;-77
2023/06/18 09:51:48;;;;;;;9.00;5.97;;;27.00;99.90;;;;;;5024780;28;20041;-77
2023/06/18 09:54:13;;;;;;;7.38;6.50;;;26.90;99.90;;;;;;5047708;28;20067;-77
2023/06/18 09:56:54;;;;;;;8.43;6.40;;;26.90;99.90;;;;;;5047834;28;20069;-77
2023/06/18 09:59:19;;;;;;;7.70;6.00;;;27.00;99.90;;;;;;5047613;28;20054;-77
2023/06/18 10:01:46;;;;;;;7.25;5.80;;;27.00;99.90;;;;;;5030794;28;20037;-77
2023/06/18 10:04:12;;;;;;;7.63;6.30;;;27.10;99.90;;;;;;5047626;28;20041;-77
2023/06/18 10:06:40;;;;;;;7.70;6.50;;;27.20;99.90;;;;;;5046753;28;20049;-77
2023/06/18 10:09:07;;;;;;;7.38;6.30;;;27.40;99.90;;;;;;5047766;28;20037;-79
2023/06/18 10:11:35;;;;;;;7.22;6.50;;;27.50;99.90;;;;;;5030266;28;20033;-76
2023/06/18 10:14:06;;;;;;;9.40;6.55;;;27.50;99.90;;;;;;5030808;28;20037;-77
2023/06/18 10:16:34;;;;;;;7.95;6.55;;;27.50;99.90;;;;;;5031354;28;20033;-77
2023/06/18 10:19:11;;;;;;;7.20;6.50;;;27.50;99.90;;;;;;5029532;28;20056;-77
2023/06/18 10:21:43;;;;;;;6.60;6.00;;;27.60;99.90;;;;;;5009418;28;20038;-77
2023/06/18 10:24:12;;;;;;;9.18;6.55;;;27.60;99.90;;;;;;5027571;28;20111;-80
2023/06/18 10:26:38;;;;;;;7.38;6.47;;;27.80;99.90;;;;;;5023412;28;20040;-78
2023/06/18 10:29:05;;;;;;;6.00;5.40;;;28.00;99.90;;;;;;5040326;28;20049;-77
2023/06/18 10:31:30;;;;;;;8.45;5.85;;;28.10;99.90;;;;;;5026621;28;20153;-77
2023/06/18 10:33:56;;;;;;;7.28;6.20;;;28.10;99.90;;;;;;5025978;28;20064;-79
2023/06/18 10:36:23;;;;;;;7.57;5.88;;;28.10;99.90;;;;;;5043871;28;20033;-77
2023/06/18 10:38:49;;;;;;;13.85;6.82;;;28.20;99.70;;;;;;5025062;28;20072;-78
2023/06/18 10:41:18;;;;;;;8.05;6.05;;;28.30;99.30;;;;;;5026770;28;20033;-77
2023/06/18 10:43:51;;;;;;;8.98;6.22;;;28.40;99.10;;;;;;5021707;28;20091;-77
2023/06/18 10:46:18;;;;;;;7.03;6.32;;;28.50;99.10;;;;;;5021018;28;20084;-75
2023/06/18 10:49:13;;;;;;;6.43;5.70;;;28.60;99.20;;;;;;5023235;28;20056;-77
2023/06/18 10:51:39;;;;;;;6.57;5.43;;;28.70;98.90;;;;;;5044010;28;20049;-77
2023/06/18 10:54:19;;;;;;;8.23;5.60;;;28.90;99.00;;;;;;5030285;28;20044;-77
2023/06/18 10:56:55;;;;;;;8.38;5.90;;;29.00;98.60;;;;;;5030362;28;20448;-78
2023/06/18 10:59:41;;;;;;;6.70;6.00;;;29.10;97.90;;;;;;5022039;28;20033;-77
2023/06/18 11:02:07;;;;;;;6.40;5.70;;;29.20;97.00;;;;;;5046359;28;20037;-76
2023/06/18 11:04:34;;;;;;;7.55;5.95;;;29.30;97.90;;;;;;5046338;28;20033;-77
2023/06/18 11:07:11;;;;;;;6.50;5.80;;;29.40;97.20;;;;;;5015191;28;20148;-77
2023/06/18 11:09:49;;;;;;;6.95;5.80;;;29.50;95.80;;;;;;5035377;28;20216;-76
2023/06/18 11:12:39;;;;;;;6.38;5.70;;;29.50;96.40;;;;;;5021730;28;20049;-77
2023/06/18 11:15:15;;;;;;;6.72;5.80;;;29.60;96.60;;;;;;5019275;28;20065;-77
2023/06/18 11:17:48;;;;;;;6.53;5.43;;;29.70;97.30;;;;;;5027348;28;20037;-81
2023/06/18 11:20:14;;;;;;;7.72;5.90;;;29.80;97.40;;;;;;5017988;28;20097;-77
2023/06/18 11:22:41;;;;;;;7.30;6.43;;;29.70;97.30;;;;;;5036755;28;20045;-79
2023/06/18 11:25:09;;;;;;;6.47;5.88;;;29.90;97.10;;;;;;5021182;28;20038;-77
2023/06/18 11:27:38;;;;;;;7.35;6.10;;;30.00;97.00;;;;;;5045344;28;20049;-77
2023/06/18 11:30:04;;;;;;;7.85;5.65;;;30.00;96.80;;;;;;5022475;28;20143;-78
2023/06/18 11:32:29;;;;;;;5.90;5.30;;;30.10;96.70;;;;;;5025555;28;20081;-78
2023/06/18 11:34:55;;;;;;;6.30;5.32;;;30.10;95.90;;;;;;5034827;28;20077;-77
2023/06/18 11:37:24;;;;;;;6.75;5.18;;;30.10;95.50;;;;;;5027703;28;20049;-78
2023/06/18 11:39:50;;;;;;;8.35;4.97;;;29.80;94.10;;;;;;5029092;28;20041;-77
2023/06/18 11:42:21;;;;;;;7.18;4.93;;;29.80;93.90;;;;;;5045324;28;20484;-77
2023/06/18 11:44:56;;;;;;;6.93;5.00;;;29.70;93.30;;;;;;5029395;28;20037;-77
2023/06/18 11:47:22;;;;;;;6.05;4.75;;;29.70;92.70;;;;;;5019318;28;20128;-76
2023/06/18 11:49:49;;;;;;;5.57;4.85;;;29.80;92.60;;;;;;5029464;28;20084;-79
2023/06/18 11:52:36;;;;;;;5.43;4.70;;;30.00;93.20;;;;;;5020916;28;20512;-76
2023/06/18 11:55:04;;;;;;;6.38;5.18;;;30.10;93.00;;;;;;5021045;28;20042;-79
2023/06/18 11:57:31;;;;;;;7.25;4.93;;;30.10;92.70;;;;;;5011832;28;20140;-75
2023/06/18 11:59:56;;;;;;;5.57;4.75;;;30.10;92.30;;;;;;5025165;28;20085;-77
2023/06/18 12:02:27;;;;;;;6.35;5.13;;;30.00;92.00;;;;;;5024978;28;20496;-77
2023/06/18 12:04:58;;;;;;;5.55;4.88;;;30.00;91.30;;;;;;5025490;28;20508;-77
2023/06/18 12:07:25;;;;;;;5.45;4.95;;;30.10;91.50;;;;;;5017347;28;20041;-76
2023/06/18 12:09:58;;;;;;;7.55;5.35;;;30.30;91.70;;;;;;5027501;28;20045;-77
2023/06/18 12:12:48;;;;;;;13.25;5.75;;;30.60;91.70;;;;;;5041522;28;20409;-76
2023/06/18 12:15:20;;;;;;;6.05;5.38;;;30.90;90.40;;;;;;5018702;28;20060;-76
2023/06/18 12:17:54;;;;;;;6.95;5.15;;;31.10;91.40;;;;;;5027572;28;20104;-76
2023/06/18 12:20:23;;;;;;;6.30;5.40;;;31.20;91.70;;;;;;5022359;28;20059;-79
2023/06/18 12:22:49;;;;;;;6.10;5.43;;;31.30;92.20;;;;;;5018515;28;20037;-78
2023/06/18 12:25:16;;;;;;;12.10;5.50;;;31.40;92.50;;;;;;5037612;28;20534;-77
2023/06/18 12:27:43;;;;;;;7.32;5.38;;;31.30;92.00;;;;;;5029329;28;20441;-76
2023/06/18 12:30:10;;;;;;;6.05;5.30;;;31.60;92.70;;;;;;5023557;28;20045;-77
2023/06/18 12:32:36;;;;;;;5.78;4.82;;;31.70;92.50;;;;;;5018381;28;20041;-76
2023/06/18 12:35:16;;;;;;;7.00;5.63;;;31.70;92.10;;;;;;5020300;28;20092;-77